Terminal Aerodrome Forecast
Issued by NWS

Home | Current Version | Previous Version | Text Only | Print | Product List | Glossary On
Versions: 1 2 3 4 5 6 7 8 9 10 11 12 13 14 15 16 17
000
FTUS46 KSEW 241700
TAFPAE
TAF
KPAE 241734Z 2418/2518 18023G31KT P6SM VCSH SCT020 BKN200
      TEMPO 2419/2423 P6SM -SHRA BKN020 OVC040
     FM242300 20013G19KT P6SM VCSH BKN040 BKN200
     FM250300 18008KT P6SM BKN200
     FM251200 17004KT P6SM OVC040=

USA.gov is the U.S. government's official web portal to all federal, state and local government web resources and services.